Time;durP1;ratioP1;P1;durP2;ratioP2;P2;SDS_P1;SDS_P2;PMS_P1;PMS_P2;Temp;Humidity;BMP_temperature;BMP_pressure;BME280_temperature;BME280_humidity;BME280_pressure;Samples;Min_cycle;Max_cycle;Signal;HPM_P1;HPM_P2
2023/09/01 00:00:57;;;;;;;;;;;;;;;19.24;nan;101132.28;5060953;28;19932;-84
2023/09/01 00:03:22;;;;;;;;;;;;;;;19.21;nan;101132.06;5062442;28;19926;-85
2023/09/01 00:05:48;;;;;;;;;;;;;;;19.15;nan;101136.78;5057996;28;19944;-85
2023/09/01 00:08:13;;;;;;;;;;;;;;;19.07;nan;101140.16;5060398;28;19917;-84
2023/09/01 00:10:39;;;;;;;;;;;;;;;18.99;nan;101141.63;5058387;28;20066;-85
2023/09/01 00:13:05;;;;;;;;;;;;;;;18.97;nan;101138.41;5064449;28;19971;-85
2023/09/01 00:15:30;;;;;;;;;;;;;;;18.95;nan;101135.19;5060944;28;19916;-85
2023/09/01 00:17:55;;;;;;;;;;;;;;;18.96;nan;101134.06;5056510;28;20456;-85
2023/09/01 00:20:21;;;;;;;;;;;;;;;19.00;nan;101135.09;5060844;28;19924;-85
2023/09/01 00:22:46;;;;;;;;;;;;;;;19.05;nan;101139.66;5061768;28;20328;-85
2023/09/01 00:25:11;;;;;;;;;;;;;;;19.06;nan;101141.28;5061336;28;19928;-85
2023/09/01 00:27:37;;;;;;;;;;;;;;;19.04;nan;101143.47;5062810;28;19924;-85
2023/09/01 00:30:02;;;;;;;;;;;;;;;19.00;nan;101137.81;5063830;28;19924;-85
2023/09/01 00:32:27;;;;;;;;;;;;;;;18.98;nan;101140.00;5063003;28;19927;-85
2023/09/01 00:34:57;;;;;;;;;;;;;;;18.95;nan;101137.91;5058268;28;19950;-85
2023/09/01 00:37:22;;;;;;;;;;;;;;;18.90;nan;101132.53;5059993;28;19916;-84
2023/09/01 00:39:47;;;;;;;;;;;;;;;18.89;nan;101141.00;5062855;28;19925;-85
2023/09/01 00:42:13;;;;;;;;;;;;;;;18.87;nan;101141.28;5064522;28;20054;-85
2023/09/01 00:44:38;;;;;;;;;;;;;;;18.81;nan;101147.88;5056469;28;19928;-85
2023/09/01 00:47:04;;;;;;;;;;;;;;;18.76;nan;101147.16;5065404;28;19921;-85
2023/09/01 00:49:30;;;;;;;;;;;;;;;18.70;nan;101149.94;5064033;28;19961;-85
2023/09/01 00:51:55;;;;;;;;;;;;;;;18.69;nan;101142.91;5065811;28;19916;-85
2023/09/01 00:54:21;;;;;;;;;;;;;;;18.68;nan;101140.47;5068461;28;20010;-85
2023/09/01 00:56:47;;;;;;;;;;;;;;;18.66;nan;101139.94;5062231;28;19924;-84
2023/09/01 00:59:14;;;;;;;;;;;;;;;18.67;nan;101144.25;5065411;28;19923;-85
2023/09/01 01:01:40;;;;;;;;;;;;;;;18.67;nan;101142.38;5066056;28;19943;-85
2023/09/01 01:04:07;;;;;;;;;;;;;;;18.69;nan;101139.38;5066870;28;19923;-84
2023/09/01 01:06:50;;;;;;;;;;;;;;;18.70;nan;101144.50;5068349;28;20396;-85
2023/09/01 01:09:34;;;;;;;;;;;;;;;18.72;nan;101149.63;5064683;28;19916;-85
2023/09/01 01:11:59;;;;;;;;;;;;;;;18.71;nan;101145.31;5060899;28;20033;-85
2023/09/01 01:14:51;;;;;;;;;;;;;;;18.69;nan;101142.91;5070450;28;20396;-84
2023/09/01 01:17:19;;;;;;;;;;;;;;;18.63;nan;101140.53;5056841;28;20026;-84
2023/09/01 01:19:53;;;;;;;;;;;;;;;18.59;nan;101137.56;5075227;28;19925;-85
2023/09/01 01:22:35;;;;;;;;;;;;;;;18.55;nan;101143.88;5069645;28;19960;-84
2023/09/01 01:25:04;;;;;;;;;;;;;;;18.48;nan;101140.69;5064538;28;19931;-85
2023/09/01 01:27:29;;;;;;;;;;;;;;;18.41;nan;101143.78;5063751;28;20011;-84
2023/09/01 01:29:54;;;;;;;;;;;;;;;18.41;nan;101141.06;5070388;28;20011;-84
2023/09/01 01:32:20;;;;;;;;;;;;;;;18.44;nan;101143.19;5061551;28;19994;-84
2023/09/01 01:34:49;;;;;;;;;;;;;;;18.48;nan;101146.13;5065707;28;19927;-84
2023/09/01 01:37:23;;;;;;;;;;;;;;;18.50;nan;101142.03;5066326;28;20462;-84
2023/09/01 01:39:50;;;;;;;;;;;;;;;18.52;nan;101147.16;5066477;28;19978;-85
2023/09/01 01:42:17;;;;;;;;;;;;;;;18.53;nan;101146.88;5065654;28;19921;-85
2023/09/01 01:44:53;;;;;;;;;;;;;;;18.55;nan;101138.44;5062791;28;19950;-85
2023/09/01 01:47:20;;;;;;;;;;;;;;;18.57;nan;101147.09;5061214;28;20541;-85
2023/09/01 01:49:45;;;;;;;;;;;;;;;18.58;nan;101151.44;5062222;28;19920;-85
2023/09/01 01:52:11;;;;;;;;;;;;;;;18.59;nan;101150.31;5058694;28;19936;-86
2023/09/01 01:54:36;;;;;;;;;;;;;;;18.62;nan;101147.03;5061832;28;19956;-86
2023/09/01 01:57:01;;;;;;;;;;;;;;;18.58;nan;101149.53;5066599;28;19924;-85
2023/09/01 01:59:27;;;;;;;;;;;;;;;18.56;nan;101153.63;5068974;28;20415;-85
2023/09/01 02:01:52;;;;;;;;;;;;;;;18.54;nan;101143.06;5065574;28;19959;-85
2023/09/01 02:04:17;;;;;;;;;;;;;;;18.54;nan;101150.41;5068247;28;19920;-84
2023/09/01 02:06:43;;;;;;;;;;;;;;;18.55;nan;101143.88;5063287;28;20062;-85
2023/09/01 02:09:09;;;;;;;;;;;;;;;18.52;nan;101147.97;5065390;28;20296;-85
2023/09/01 02:11:38;;;;;;;;;;;;;;;18.51;nan;101145.56;5062546;28;19920;-84
2023/09/01 02:14:03;;;;;;;;;;;;;;;18.51;nan;101151.00;5065717;28;19923;-84
2023/09/01 02:16:29;;;;;;;;;;;;;;;18.51;nan;101157.22;5066045;28;19921;-85
2023/09/01 02:18:54;;;;;;;;;;;;;;;18.52;nan;101158.03;5066061;28;20429;-84
2023/09/01 02:21:20;;;;;;;;;;;;;;;18.52;nan;101160.75;5069292;28;20019;-85
2023/09/01 02:23:46;;;;;;;;;;;;;;;18.52;nan;101160.75;5064937;28;19925;-84
2023/09/01 02:26:18;;;;;;;;;;;;;;;18.53;nan;101165.06;5066042;28;20315;-85
2023/09/01 02:28:43;;;;;;;;;;;;;;;18.53;nan;101170.50;5066541;28;19934;-85
2023/09/01 02:31:11;;;;;;;;;;;;;;;18.55;nan;101168.28;5062307;28;19917;-85
2023/09/01 02:33:37;;;;;;;;;;;;;;;18.52;nan;101168.88;5066482;28;19917;-84
2023/09/01 02:36:21;;;;;;;;;;;;;;;18.52;nan;101168.88;5064919;28;20387;-85
2023/09/01 02:38:46;;;;;;;;;;;;;;;18.53;nan;101170.50;5068892;28;20699;-85
2023/09/01 02:41:12;;;;;;;;;;;;;;;18.50;nan;101173.78;5068573;28;19946;-85
2023/09/01 02:43:37;;;;;;;;;;;;;;;18.47;nan;101168.91;5067354;28;19921;-85
2023/09/01 02:46:04;;;;;;;;;;;;;;;18.42;nan;101158.94;5064428;28;19924;-85
2023/09/01 02:48:30;;;;;;;;;;;;;;;18.35;nan;101175.59;5069830;28;20047;-85
2023/09/01 02:50:55;;;;;;;;;;;;;;;18.33;nan;101175.06;5065202;28;20006;-84
2023/09/01 02:53:20;;;;;;;;;;;;;;;18.31;nan;101174.56;5069508;28;19920;-85
2023/09/01 02:55:46;;;;;;;;;;;;;;;18.28;nan;101169.69;5065196;28;20461;-85
2023/09/01 02:58:11;;;;;;;;;;;;;;;18.26;nan;101166.47;5067676;28;19916;-84
2023/09/01 03:00:36;;;;;;;;;;;;;;;18.23;nan;101161.63;5066996;28;19960;-85
2023/09/01 03:03:02;;;;;;;;;;;;;;;18.18;nan;101169.81;5064547;28;19960;-84
2023/09/01 03:05:27;;;;;;;;;;;;;;;18.13;nan;101169.84;5064906;28;19917;-84
2023/09/01 03:07:53;;;;;;;;;;;;;;;18.10;nan;101170.44;5070445;28;20418;-84
2023/09/01 03:10:18;;;;;;;;;;;;;;;18.12;nan;101177.19;5072113;28;19956;-84
2023/09/01 03:12:44;;;;;;;;;;;;;;;18.10;nan;101167.72;5068985;28;20431;-83
2023/09/01 03:15:09;;;;;;;;;;;;;;;18.07;nan;101162.88;5063652;28;19916;-84
2023/09/01 03:17:35;;;;;;;;;;;;;;;18.06;nan;101167.50;5065482;28;19925;-85
2023/09/01 03:20:00;;;;;;;;;;;;;;;18.07;nan;101171.00;5067554;28;19932;-84
2023/09/01 03:22:26;;;;;;;;;;;;;;;18.07;nan;101168.31;5073115;28;19930;-84
2023/09/01 03:24:52;;;;;;;;;;;;;;;18.06;nan;101163.97;5070493;28;19947;-84
2023/09/01 03:27:17;;;;;;;;;;;;;;;18.04;nan;101161.56;5063865;28;19917;-84
2023/09/01 03:29:43;;;;;;;;;;;;;;;18.01;nan;101156.72;5067906;28;20563;-84
2023/09/01 03:32:10;;;;;;;;;;;;;;;17.99;nan;101158.91;5068586;28;19956;-84
2023/09/01 03:34:35;;;;;;;;;;;;;;;18.00;nan;101151.59;5066437;28;20388;-84
2023/09/01 03:37:01;;;;;;;;;;;;;;;17.97;nan;101157.59;5062864;28;20003;-84
2023/09/01 03:39:26;;;;;;;;;;;;;;;17.99;nan;101152.69;5068555;28;19927;-84
2023/09/01 03:41:51;;;;;;;;;;;;;;;17.99;nan;101145.34;5064288;28;19928;-85
2023/09/01 03:44:17;;;;;;;;;;;;;;;17.98;nan;101143.75;5065521;28;19916;-85
2023/09/01 03:46:42;;;;;;;;;;;;;;;17.95;nan;101148.91;5065558;28;20529;-84
2023/09/01 03:49:07;;;;;;;;;;;;;;;17.93;nan;101145.69;5068861;28;19920;-85
2023/09/01 03:51:33;;;;;;;;;;;;;;;17.95;nan;101143.47;5067901;28;20399;-84
2023/09/01 03:53:58;;;;;;;;;;;;;;;18.01;nan;101145.06;5065558;28;20352;-84
2023/09/01 03:56:24;;;;;;;;;;;;;;;18.05;nan;101148.81;5066159;28;19928;-85
2023/09/01 03:58:50;;;;;;;;;;;;;;;18.07;nan;101157.47;5069521;28;19915;-85
2023/09/01 04:01:15;;;;;;;;;;;;;;;18.09;nan;101157.97;5068867;28;19921;-84
2023/09/01 04:03:44;;;;;;;;;;;;;;;18.11;nan;101158.50;5068589;28;20387;-84
2023/09/01 04:06:10;;;;;;;;;;;;;;;18.09;nan;101160.69;5064598;28;20011;-85
2023/09/01 04:08:35;;;;;;;;;;;;;;;18.06;nan;101166.69;5068005;28;20011;-84
2023/09/01 04:11:02;;;;;;;;;;;;;;;18.03;nan;101161.84;5062165;28;19964;-83
2023/09/01 04:13:27;;;;;;;;;;;;;;;17.99;nan;101158.09;5065260;28;19935;-84
2023/09/01 04:15:53;;;;;;;;;;;;;;;17.95;nan;101157.03;5062536;28;19917;-84
2023/09/01 04:18:18;;;;;;;;;;;;;;;17.90;nan;101155.19;5065048;28;20288;-84
2023/09/01 04:20:47;;;;;;;;;;;;;;;17.87;nan;101155.78;5064250;28;19929;-84
2023/09/01 04:23:13;;;;;;;;;;;;;;;17.87;nan;101157.69;5064730;28;19962;-84
2023/09/01 04:25:38;;;;;;;;;;;;;;;17.89;nan;101163.63;5063840;28;19935;-84
2023/09/01 04:28:04;;;;;;;;;;;;;;;17.88;nan;101168.22;5064272;28;19920;-84
2023/09/01 04:30:30;;;;;;;;;;;;;;;17.88;nan;101167.41;5062351;28;19973;-84
2023/09/01 04:32:55;;;;;;;;;;;;;;;17.91;nan;101172.28;5062796;28;19990;-83
2023/09/01 04:35:20;;;;;;;;;;;;;;;17.92;nan;101176.59;5063489;28;19924;-84
2023/09/01 04:37:46;;;;;;;;;;;;;;;17.92;nan;101179.31;5065696;28;19952;-83
2023/09/01 04:40:11;;;;;;;;;;;;;;;17.90;nan;101179.59;5063895;28;20384;-84
2023/09/01 04:42:36;;;;;;;;;;;;;;;17.91;nan;101174.97;5063093;28;19917;-84
2023/09/01 04:45:03;;;;;;;;;;;;;;;17.93;nan;101184.44;5066252;28;19958;-84
2023/09/01 04:47:29;;;;;;;;;;;;;;;17.96;nan;101191.22;5064899;28;19920;-84
2023/09/01 04:49:55;;;;;;;;;;;;;;;17.97;nan;101190.94;5062768;28;19923;-84
2023/09/01 04:52:20;;;;;;;;;;;;;;;17.99;nan;101193.34;5061564;28;20023;-84
2023/09/01 04:54:46;;;;;;;;;;;;;;;18.02;nan;101190.88;5064449;28;19927;-84
2023/09/01 04:57:11;;;;;;;;;;;;;;;18.02;nan;101195.47;5061696;28;19963;-84
2023/09/01 04:59:36;;;;;;;;;;;;;;;18.02;nan;101195.47;5062858;28;19924;-84
2023/09/01 05:02:01;;;;;;;;;;;;;;;18.05;nan;101197.63;5064782;28;19947;-84
2023/09/01 05:04:27;;;;;;;;;;;;;;;18.08;nan;101189.72;5061596;28;19943;-84
2023/09/01 05:06:52;;;;;;;;;;;;;;;18.13;nan;101205.09;5063423;28;19917;-83
2023/09/01 05:09:18;;;;;;;;;;;;;;;18.12;nan;101192.66;5062895;28;19978;-84
2023/09/01 05:11:43;;;;;;;;;;;;;;;18.15;nan;101200.22;5062316;28;19924;-85
2023/09/01 05:14:09;;;;;;;;;;;;;;;18.21;nan;101201.78;5066330;28;19924;-85
2023/09/01 05:16:34;;;;;;;;;;;;;;;18.28;nan;101201.44;5062246;28;19928;-84
2023/09/01 05:18:59;;;;;;;;;;;;;;;18.34;nan;101195.69;5065360;28;20404;-84
2023/09/01 05:21:24;;;;;;;;;;;;;;;18.36;nan;101196.19;5061412;28;19971;-84
2023/09/01 05:23:50;;;;;;;;;;;;;;;18.38;nan;101196.72;5064944;28;19924;-84
2023/09/01 05:26:15;;;;;;;;;;;;;;;18.39;nan;101198.31;5061561;28;20403;-84
2023/09/01 05:28:40;;;;;;;;;;;;;;;18.48;nan;101205.81;5064183;28;19917;-85
2023/09/01 05:31:06;;;;;;;;;;;;;;;18.56;nan;101203.28;5064337;28;19916;-84
2023/09/01 05:33:31;;;;;;;;;;;;;;;18.60;nan;101203.50;5065639;28;19927;-85
2023/09/01 05:35:56;;;;;;;;;;;;;;;18.64;nan;101204.56;5061192;28;20373;-84
2023/09/01 05:38:21;;;;;;;;;;;;;;;18.69;nan;101208.03;5063515;28;20602;-84
2023/09/01 05:41:01;;;;;;;;;;;;;;;18.72;nan;101206.63;5060219;28;19931;-84
2023/09/01 05:43:27;;;;;;;;;;;;;;;18.71;nan;101216.69;5062488;28;19921;-85
2023/09/01 05:45:53;;;;;;;;;;;;;;;18.68;nan;101217.28;5061691;28;19923;-84
2023/09/01 05:48:18;;;;;;;;;;;;;;;18.73;nan;101229.97;5068346;28;19961;-85
2023/09/01 05:50:44;;;;;;;;;;;;;;;18.76;nan;101228.56;5064908;28;20396;-85
2023/09/01 05:53:10;;;;;;;;;;;;;;;18.87;nan;101221.94;5068909;28;20019;-84
2023/09/01 05:55:35;;;;;;;;;;;;;;;18.91;nan;101223.75;5066997;28;19932;-85
2023/09/01 05:58:01;;;;;;;;;;;;;;;18.97;nan;101227.19;5070508;28;19920;-85
2023/09/01 06:00:26;;;;;;;;;;;;;;;19.01;nan;101220.88;5068049;28;20292;-85
2023/09/01 06:02:52;;;;;;;;;;;;;;;19.06;nan;101221.94;5065793;28;19916;-85
2023/09/01 06:05:17;;;;;;;;;;;;;;;19.13;nan;101225.88;5065850;28;19916;-85
2023/09/01 06:07:43;;;;;;;;;;;;;;;19.24;nan;101223.84;5063655;28;19924;-85
2023/09/01 06:10:08;;;;;;;;;;;;;;;19.26;nan;101225.16;5068638;28;20364;-84
2023/09/01 06:12:34;;;;;;;;;;;;;;;19.32;nan;101225.88;5064684;28;19920;-84
2023/09/01 06:14:59;;;;;;;;;;;;;;;19.41;nan;101224.13;5065161;28;20357;-84
2023/09/01 06:17:24;;;;;;;;;;;;;;;19.51;nan;101223.94;5064691;28;19917;-84
2023/09/01 06:19:49;;;;;;;;;;;;;;;19.61;nan;101240.16;5063925;28;19916;-84
2023/09/01 06:22:15;;;;;;;;;;;;;;;19.68;nan;101234.31;5064883;28;19931;-85
2023/09/01 06:24:40;;;;;;;;;;;;;;;19.73;nan;101244.28;5064726;28;20590;-85
2023/09/01 06:27:05;;;;;;;;;;;;;;;19.78;nan;101239.59;5064570;28;19917;-85
2023/09/01 06:29:30;;;;;;;;;;;;;;;19.88;nan;101244.84;5067155;28;19924;-85
2023/09/01 06:31:56;;;;;;;;;;;;;;;19.96;nan;101248.81;5064836;28;20785;-85
2023/09/01 06:34:21;;;;;;;;;;;;;;;20.00;nan;101246.28;5065874;28;19928;-84
2023/09/01 06:36:46;;;;;;;;;;;;;;;20.09;nan;101250.72;5064473;28;19920;-85
2023/09/01 06:39:12;;;;;;;;;;;;;;;20.17;nan;101250.06;5068022;28;19917;-84
2023/09/01 06:41:37;;;;;;;;;;;;;;;20.29;nan;101246.84;5067572;28;19928;-84
2023/09/01 06:44:02;;;;;;;;;;;;;;;20.40;nan;101242.81;5062793;28;19920;-84
2023/09/01 06:46:28;;;;;;;;;;;;;;;20.46;nan;101248.97;5067016;28;19924;-84
2023/09/01 06:48:53;;;;;;;;;;;;;;;20.48;nan;101252.25;5062714;28;20042;-84
2023/09/01 06:51:18;;;;;;;;;;;;;;;20.60;nan;101249.81;5062328;28;19962;-84
2023/09/01 06:53:44;;;;;;;;;;;;;;;20.69;nan;101250.72;5064103;28;19925;-84
2023/09/01 06:56:09;;;;;;;;;;;;;;;20.85;nan;101245.75;5065077;28;19916;-84
2023/09/01 06:58:34;;;;;;;;;;;;;;;20.99;nan;101254.69;5061335;28;19916;-84
2023/09/01 07:01:07;;;;;;;;;;;;;;;21.10;nan;101258.00;5064283;28;20662;-85
2023/09/01 07:03:32;;;;;;;;;;;;;;;21.14;nan;101253.56;5063245;28;20505;-84
2023/09/01 07:05:58;;;;;;;;;;;;;;;21.24;nan;101247.09;5060878;28;20168;-91
2023/09/01 07:08:24;;;;;;;;;;;;;;;21.35;nan;101252.00;5063597;28;19926;-82
2023/09/01 07:10:49;;;;;;;;;;;;;;;21.41;nan;101258.97;5064274;28;20395;-85
2023/09/01 07:13:14;;;;;;;;;;;;;;;21.56;nan;101266.00;5061389;28;19924;-81
2023/09/01 07:15:40;;;;;;;;;;;;;;;21.66;nan;101254.00;5063034;28;20621;-84
2023/09/01 07:18:05;;;;;;;;;;;;;;;21.77;nan;101249.94;5059223;28;19920;-84
2023/09/01 07:20:30;;;;;;;;;;;;;;;21.83;nan;101267.78;5061672;28;19927;-82
2023/09/01 07:22:56;;;;;;;;;;;;;;;21.83;nan;101256.88;5062768;28;19917;-83
2023/09/01 07:25:21;;;;;;;;;;;;;;;21.99;nan;101260.00;5066941;28;20352;-82
2023/09/01 07:27:46;;;;;;;;;;;;;;;22.19;nan;101264.97;5061570;28;20394;-83
2023/09/01 07:30:13;;;;;;;;;;;;;;;22.26;nan;101267.22;5067081;28;20015;-83
2023/09/01 07:32:40;;;;;;;;;;;;;;;22.27;nan;101266.94;5061299;28;19927;-83
2023/09/01 07:35:05;;;;;;;;;;;;;;;22.37;nan;101256.84;5065106;28;19920;-82
2023/09/01 07:37:31;;;;;;;;;;;;;;;22.49;nan;101262.53;5062422;28;19924;-82
2023/09/01 07:39:56;;;;;;;;;;;;;;;22.56;nan;101265.59;5066078;28;19931;-81
2023/09/01 07:42:22;;;;;;;;;;;;;;;22.68;nan;101273.19;5062394;28;19921;-84
2023/09/01 07:44:48;;;;;;;;;;;;;;;22.81;nan;101266.81;5063161;28;19924;-83
2023/09/01 07:47:13;;;;;;;;;;;;;;;22.88;nan;101280.84;5063460;28;19955;-84
2023/09/01 07:49:39;;;;;;;;;;;;;;;22.88;nan;101272.63;5065608;28;19920;-83
2023/09/01 07:52:04;;;;;;;;;;;;;;;22.92;nan;101276.34;5066439;28;19920;-84
2023/09/01 07:54:29;;;;;;;;;;;;;;;23.02;nan;101276.06;5065577;28;20019;-83
2023/09/01 07:56:55;;;;;;;;;;;;;;;23.14;nan;101278.94;5061151;28;19917;-83
2023/09/01 07:59:20;;;;;;;;;;;;;;;23.18;nan;101273.66;5061856;28;20408;-84
2023/09/01 08:01:46;;;;;;;;;;;;;;;23.23;nan;101283.63;5063482;28;19928;-83
2023/09/01 08:04:11;;;;;;;;;;;;;;;23.34;nan;101284.91;5064922;28;19920;-86
2023/09/01 08:06:36;;;;;;;;;;;;;;;23.45;nan;101283.47;5063598;28;19938;-84
2023/09/01 08:09:03;;;;;;;;;;;;;;;23.49;nan;101287.16;5062095;28;19924;-83
2023/09/01 08:11:28;;;;;;;;;;;;;;;23.54;nan;101295.22;5062694;28;19920;-84
2023/09/01 08:13:53;;;;;;;;;;;;;;;23.58;nan;101298.97;5061544;28;19917;-84
2023/09/01 08:16:19;;;;;;;;;;;;;;;23.70;nan;101292.84;5063152;28;19923;-83
2023/09/01 08:18:44;;;;;;;;;;;;;;;23.87;nan;101306.47;5064002;28;19917;-83
2023/09/01 08:21:10;;;;;;;;;;;;;;;23.92;nan;101302.78;5059771;28;19928;-83
2023/09/01 08:23:35;;;;;;;;;;;;;;;24.12;nan;101304.84;5060977;28;19917;-81
2023/09/01 08:26:04;;;;;;;;;;;;;;;24.27;nan;101311.72;5063489;28;19926;-83
2023/09/01 08:28:29;;;;;;;;;;;;;;;24.19;nan;101299.66;5062831;28;19925;-81
2023/09/01 08:30:59;;;;;;;;;;;;;;;24.21;nan;101297.41;5059521;28;19923;-81
2023/09/01 08:33:25;;;;;;;;;;;;;;;24.34;nan;101301.91;5060314;28;19927;-83
2023/09/01 08:35:50;;;;;;;;;;;;;;;24.54;nan;101322.28;5061530;28;19921;-83
2023/09/01 08:38:15;;;;;;;;;;;;;;;24.53;nan;101303.44;5061656;28;19920;-83
2023/09/01 08:40:41;;;;;;;;;;;;;;;24.60;nan;101306.50;5064976;28;19935;-83
2023/09/01 08:43:07;;;;;;;;;;;;;;;24.52;nan;101308.13;5062123;28;20404;-83
2023/09/01 08:45:33;;;;;;;;;;;;;;;24.44;nan;101305.44;5064005;28;19920;-82
2023/09/01 08:47:58;;;;;;;;;;;;;;;24.56;nan;101316.47;5060921;28;20418;-83
2023/09/01 08:50:24;;;;;;;;;;;;;;;24.62;nan;101312.44;5059126;28;19920;-85
2023/09/01 08:52:49;;;;;;;;;;;;;;;24.62;nan;101324.22;5062174;28;19926;-82
2023/09/01 08:55:18;;;;;;;;;;;;;;;24.62;nan;101321.47;5060499;28;19928;-83
2023/09/01 08:57:44;;;;;;;;;;;;;;;24.59;nan;101313.06;5060004;28;19931;-83
2023/09/01 09:00:09;;;;;;;;;;;;;;;24.69;nan;101318.19;5062423;28;19929;-83
2023/09/01 09:02:35;;;;;;;;;;;;;;;24.75;nan;101311.41;5063648;28;20322;-81
2023/09/01 09:05:02;;;;;;;;;;;;;;;24.89;nan;101301.00;5060620;28;20007;-83
2023/09/01 09:07:29;;;;;;;;;;;;;;;25.10;nan;101311.22;5059106;28;19916;-82
2023/09/01 09:09:58;;;;;;;;;;;;;;;25.22;nan;101314.06;5058569;28;19956;-81
2023/09/01 09:12:23;;;;;;;;;;;;;;;25.32;nan;101316.41;5059048;28;19940;-82
2023/09/01 09:14:52;;;;;;;;;;;;;;;25.46;nan;101325.16;5060699;28;19928;-81
2023/09/01 09:17:19;;;;;;;;;;;;;;;25.57;nan;101315.41;5058945;28;19917;-82
2023/09/01 09:19:54;;;;;;;;;;;;;;;25.65;nan;101318.41;5058439;28;20408;-81
2023/09/01 09:22:20;;;;;;;;;;;;;;;25.74;nan;101316.44;5060437;28;19932;-81
2023/09/01 09:24:46;;;;;;;;;;;;;;;25.70;nan;101321.00;5066759;28;19991;-83
2023/09/01 09:27:15;;;;;;;;;;;;;;;25.71;nan;101322.59;5067131;28;20008;-83
2023/09/01 09:29:41;;;;;;;;;;;;;;;25.78;nan;101320.09;5066233;28;19923;-82
2023/09/01 09:32:16;;;;;;;;;;;;;;;25.86;nan;101324.72;5067445;28;19917;-81
2023/09/01 09:34:41;;;;;;;;;;;;;;;25.95;nan;101314.44;5063480;28;20540;-82
2023/09/01 09:37:14;;;;;;;;;;;;;;;25.91;nan;101324.50;5061851;28;19916;-82
2023/09/01 09:39:41;;;;;;;;;;;;;;;25.95;nan;101330.91;5061327;28;19948;-83
2023/09/01 09:42:06;;;;;;;;;;;;;;;26.08;nan;101309.81;5067051;28;20479;-81
2023/09/01 09:44:35;;;;;;;;;;;;;;;26.12;nan;101322.50;5062677;28;20062;-82
2023/09/01 09:47:09;;;;;;;;;;;;;;;26.20;nan;101310.63;5068451;28;19916;-83
2023/09/01 09:49:35;;;;;;;;;;;;;;;26.35;nan;101322.13;5066656;28;19916;-82
2023/09/01 09:52:02;;;;;;;;;;;;;;;26.49;nan;101314.38;5061911;28;19924;-81
2023/09/01 09:54:28;;;;;;;;;;;;;;;26.68;nan;101311.06;5064337;28;19956;-80
2023/09/01 09:56:54;;;;;;;;;;;;;;;26.84;nan;101322.97;5061321;28;20493;-82
2023/09/01 09:59:40;;;;;;;;;;;;;;;26.89;nan;101319.19;5063372;28;20011;-81
2023/09/01 10:02:10;;;;;;;;;;;;;;;26.90;nan;101327.06;5059794;28;20391;-83
2023/09/01 10:04:38;;;;;;;;;;;;;;;26.93;nan;101331.09;5064565;28;19924;-83
2023/09/01 10:07:03;;;;;;;;;;;;;;;26.96;nan;101320.22;5063032;28;20011;-82
2023/09/01 10:09:29;;;;;;;;;;;;;;;27.03;nan;101327.91;5062756;28;20018;-82
2023/09/01 10:11:55;;;;;;;;;;;;;;;27.08;nan;101317.47;5063312;28;19916;-83
2023/09/01 10:14:23;;;;;;;;;;;;;;;27.14;nan;101320.81;5065850;28;19940;-82
2023/09/01 10:16:49;;;;;;;;;;;;;;;27.17;nan;101333.84;5064617;28;19920;-82
2023/09/01 10:19:18;;;;;;;;;;;;;;;27.25;nan;101332.91;5065168;28;19917;-81
2023/09/01 10:21:44;;;;;;;;;;;;;;;27.29;nan;101331.09;5063038;28;19932;-83
2023/09/01 10:24:13;;;;;;;;;;;;;;;27.50;nan;101328.16;5060131;28;19925;-81
2023/09/01 10:26:40;;;;;;;;;;;;;;;27.60;nan;101327.66;5058706;28;20465;-81
2023/09/01 10:29:06;;;;;;;;;;;;;;;27.57;nan;101333.06;5062926;28;20021;-82
2023/09/01 10:31:33;;;;;;;;;;;;;;;27.59;nan;101339.03;5058429;28;20031;-83
2023/09/01 10:34:14;;;;;;;;;;;;;;;27.43;nan;101344.44;5060414;28;19916;-82
2023/09/01 10:36:44;;;;;;;;;;;;;;;27.27;nan;101340.81;5061376;28;19967;-81
2023/09/01 10:39:21;;;;;;;;;;;;;;;27.32;nan;101344.16;5064147;28;19924;-81
2023/09/01 10:41:58;;;;;;;;;;;;;;;27.43;nan;101338.94;5062044;28;19935;-82
2023/09/01 10:44:26;;;;;;;;;;;;;;;27.43;nan;101338.16;5062826;28;20041;-82
2023/09/01 10:46:51;;;;;;;;;;;;;;;27.47;nan;101339.03;5057922;28;20103;-82
2023/09/01 10:49:17;;;;;;;;;;;;;;;27.46;nan;101341.00;5064194;28;20027;-81
2023/09/01 10:51:43;;;;;;;;;;;;;;;27.57;nan;101350.38;5063981;28;19931;-82
2023/09/01 10:54:14;;;;;;;;;;;;;;;27.68;nan;101339.72;5063415;28;19943;-81
2023/09/01 10:56:58;;;;;;;;;;;;;;;27.76;nan;101336.00;5061789;28;19916;-81
2023/09/01 10:59:29;;;;;;;;;;;;;;;27.86;nan;101341.03;5060856;28;19916;-82
2023/09/01 11:01:55;;;;;;;;;;;;;;;27.76;nan;101333.25;5063295;28;19985;-79
2023/09/01 11:04:20;;;;;;;;;;;;;;;27.76;nan;101343.47;5061070;28;20402;-82
2023/09/01 11:07:12;;;;;;;;;;;;;;;27.67;nan;101338.94;5064433;28;19916;-83
2023/09/01 11:09:42;;;;;;;;;;;;;;;27.75;nan;101339.91;5056389;28;19921;-81
2023/09/01 11:12:08;;;;;;;;;;;;;;;27.93;nan;101351.44;5056411;28;19925;-82
2023/09/01 11:14:35;;;;;;;;;;;;;;;28.09;nan;101334.94;5060246;28;19973;-82
2023/09/01 11:17:00;;;;;;;;;;;;;;;28.24;nan;101345.19;5057737;28;20380;-83
2023/09/01 11:19:26;;;;;;;;;;;;;;;28.20;nan;101350.63;5051936;28;19979;-81
2023/09/01 11:21:51;;;;;;;;;;;;;;;28.11;nan;101346.41;5061221;28;19967;-82
2023/09/01 11:24:20;;;;;;;;;;;;;;;28.00;nan;101352.41;5062059;28;19952;-83
2023/09/01 11:26:46;;;;;;;;;;;;;;;28.10;nan;101353.06;5060271;28;20384;-82
2023/09/01 11:29:12;;;;;;;;;;;;;;;28.16;nan;101355.22;5059254;28;20218;-83
2023/09/01 11:31:41;;;;;;;;;;;;;;;28.14;nan;101351.22;5063118;28;19917;-82
2023/09/01 11:34:06;;;;;;;;;;;;;;;28.20;nan;101350.63;5056392;28;20376;-83
2023/09/01 11:36:33;;;;;;;;;;;;;;;28.17;nan;101345.78;5060274;28;19920;-84
2023/09/01 11:38:58;;;;;;;;;;;;;;;28.14;nan;101345.69;5057033;28;20377;-84
2023/09/01 11:41:26;;;;;;;;;;;;;;;28.17;nan;101339.47;5048738;28;20025;-79
2023/09/01 11:43:52;;;;;;;;;;;;;;;28.25;nan;101352.31;5060435;28;20360;-82
2023/09/01 11:46:29;;;;;;;;;;;;;;;28.33;nan;101351.34;5062321;28;19920;-81
2023/09/01 11:48:54;;;;;;;;;;;;;;;28.22;nan;101355.78;5062174;28;19925;-85
2023/09/01 11:51:28;;;;;;;;;;;;;;;28.18;nan;101347.38;5061951;28;20383;-84
2023/09/01 11:53:54;;;;;;;;;;;;;;;28.18;nan;101357.59;5050377;28;20009;-82
2023/09/01 11:56:22;;;;;;;;;;;;;;;28.32;nan;101351.72;5056740;28;19921;-82
2023/09/01 11:58:51;;;;;;;;;;;;;;;28.47;nan;101361.97;5058825;28;19920;-82
2023/09/01 12:01:18;;;;;;;;;;;;;;;28.54;nan;101353.84;5049705;28;20415;-84
2023/09/01 12:03:46;;;;;;;;;;;;;;;28.62;nan;101352.91;5054122;28;20407;-84
2023/09/01 12:06:21;;;;;;;;;;;;;;;28.63;nan;101350.94;5055108;28;20046;-83
2023/09/01 12:08:46;;;;;;;;;;;;;;;28.43;nan;101359.13;5055706;28;19925;-83
2023/09/01 12:11:15;;;;;;;;;;;;;;;28.22;nan;101375.84;5056353;28;20467;-83
2023/09/01 12:13:44;;;;;;;;;;;;;;;28.02;nan;101362.31;5059734;28;19978;-84
2023/09/01 12:16:22;;;;;;;;;;;;;;;27.98;nan;101362.19;5058611;28;19932;-82
2023/09/01 12:18:48;;;;;;;;;;;;;;;28.03;nan;101361.16;5054408;28;19977;-83
2023/09/01 12:21:14;;;;;;;;;;;;;;;28.05;nan;101359.66;5059978;28;20387;-84
2023/09/01 12:23:43;;;;;;;;;;;;;;;28.12;nan;101359.84;5056367;28;20292;-83
2023/09/01 12:26:09;;;;;;;;;;;;;;;28.13;nan;101361.44;5053484;28;19932;-83
2023/09/01 12:28:35;;;;;;;;;;;;;;;28.25;nan;101363.31;5054778;28;20319;-83
2023/09/01 12:31:02;;;;;;;;;;;;;;;28.35;nan;101362.81;5058487;28;20129;-83
2023/09/01 12:33:27;;;;;;;;;;;;;;;28.40;nan;101367.28;5054744;28;19998;-83
2023/09/01 12:35:53;;;;;;;;;;;;;;;28.43;nan;101369.34;5057489;28;19920;-83
2023/09/01 12:38:19;;;;;;;;;;;;;;;28.46;nan;101380.44;5058622;28;19924;-83
2023/09/01 12:40:44;;;;;;;;;;;;;;;28.27;nan;101374.81;5059044;28;19925;-84
2023/09/01 12:43:10;;;;;;;;;;;;;;;28.13;nan;101374.41;5059382;28;19967;-83
2023/09/01 12:45:35;;;;;;;;;;;;;;;28.12;nan;101370.03;5058021;28;20522;-83
2023/09/01 12:48:01;;;;;;;;;;;;;;;28.19;nan;101364.75;5054375;28;19927;-83
2023/09/01 12:50:27;;;;;;;;;;;;;;;28.28;nan;101379.97;5056081;28;19933;-82
2023/09/01 12:52:53;;;;;;;;;;;;;;;28.32;nan;101374.56;5056106;28;19924;-83
2023/09/01 12:55:19;;;;;;;;;;;;;;;28.24;nan;101372.75;5059293;28;19930;-82